Login to view Products
 
Thursday, November 26, 2020 (03:19 UTC)
Al Maktoum International Airport
Last Updated: 26-Nov-2020 (03:18Z)
Wind Dir/Speed: ENE at 08 kt
Temperature: 14.6°C
Rel. Humidity: 85 %
Pressure: 1019.1 hPa
Visibility: 10000 m
  • METAR OMDW 260300Z 12005KT CAVOK 16/13 Q1018 NOSIG
  • TAF OMDW 252300Z 2600/2706 08008KT 8000 NSC BECMG 2611/2613 35012KT BECMG 2614/2616 11008KT=
D:\Input Parser\Destinations\Final\23\OMDWL00062300735381403.txt
1